Terminal Aerodrome Forecast
Issued by NWS Sioux Falls, SD

Home | Current Version | Previous Version | Text Only | Print | Product List | Glossary On
Versions: 1 2 3 4 5 6 7 8 9 10 11 12 13 14 15 16 17
000
FTUS43 KFSD 180521
TAFSUX
TAF
KSUX 180521Z 1806/1906 11004KT P6SM VCSH BKN070
     FM180800 11005KT P6SM -SHRA VCTS OVC040CB
     FM181200 11005KT P6SM SHRA OVC015
     FM181400 13006KT 5SM -SHRA BR OVC008
     FM181700 16007KT P6SM BKN015
     FM182000 16006KT P6SM SCT030
     FM190100 12004KT P6SM SKC=

USA.gov is the U.S. government's official web portal to all federal, state and local government web resources and services.